Time;durP1;ratioP1;P1;durP2;ratioP2;P2;SDS_P1;SDS_P2;PMS_P1;PMS_P2;Temp;Humidity;BMP_temperature;BMP_pressure;BME280_temperature;BME280_humidity;BME280_pressure;Samples;Min_cycle;Max_cycle;Signal;HPM_P1;HPM_P2
2020/12/30 00:00:55;;;;;;;24.23;14.98;;;;;;;11.69;65.26;99383.66;5095121;28;20134;-81
2020/12/30 00:03:20;;;;;;;26.70;14.95;;;;;;;11.32;65.76;99328.38;5095003;28;20024;-81
2020/12/30 00:05:46;;;;;;;28.30;15.65;;;;;;;11.94;65.61;99434.41;5095097;28;20055;-82
2020/12/30 00:08:11;;;;;;;26.45;14.90;;;;;;;11.62;65.75;99397.81;5077018;28;20468;-81
2020/12/30 00:10:37;;;;;;;24.02;15.63;;;;;;;11.32;66.24;99339.78;5095069;28;20023;-81
2020/12/30 00:13:03;;;;;;;26.65;15.70;;;;;;;12.00;66.11;99449.53;5095013;28;20521;-81
2020/12/30 00:15:28;;;;;;;24.63;15.98;;;;;;;11.99;66.33;99450.53;5094876;28;20027;-80
2020/12/30 00:17:53;;;;;;;26.17;14.80;;;;;;;10.49;66.36;99211.66;5094912;28;20418;-79
2020/12/30 00:20:22;;;;;;;23.63;14.20;;;;;;;11.98;65.72;99448.09;5094857;28;20153;-82
2020/12/30 00:22:48;;;;;;;20.50;13.90;;;;;;;11.99;65.62;99450.53;5094935;28;20053;-82
2020/12/30 00:25:15;;;;;;;22.83;15.05;;;;;;;11.98;66.38;99450.72;5076829;28;20031;-81
2020/12/30 00:27:42;;;;;;;23.05;14.27;;;;;;;11.85;66.27;99440.81;5094882;28;20020;-81
2020/12/30 00:30:09;;;;;;;24.27;15.38;;;;;;;11.57;66.32;99405.50;5076870;28;20024;-80
2020/12/30 00:32:35;;;;;;;22.98;15.52;;;;;;;11.44;66.22;99393.78;5094715;28;20024;-81
2020/12/30 00:35:01;;;;;;;27.90;15.98;;;;;;;11.41;66.27;99375.66;5094945;28;20103;-81
2020/12/30 00:37:26;;;;;;;21.55;13.07;;;;;;;11.49;66.65;99393.22;5076571;28;20028;-81
2020/12/30 00:39:51;;;;;;;30.83;16.67;;;;;;;11.34;67.02;99366.00;5076863;28;20422;-81
2020/12/30 00:42:17;;;;;;;27.38;15.45;;;;;;;11.90;66.74;99467.56;5094558;28;20024;-80
2020/12/30 00:44:42;;;;;;;25.08;15.35;;;;;;;11.50;67.07;99404.63;5094680;28;20452;-80
2020/12/30 00:47:07;;;;;;;25.23;14.23;;;;;;;11.40;66.37;99373.19;5094454;28;20331;-81
2020/12/30 00:49:33;;;;;;;24.52;13.27;;;;;;;11.25;66.45;99340.72;5094791;28;20028;-80
2020/12/30 00:51:58;;;;;;;21.30;12.73;;;;;;;11.11;67.44;99300.09;5076708;28;20024;-79
2020/12/30 00:54:24;;;;;;;20.48;11.00;;;;;;;11.69;67.13;99409.28;5076666;28;20024;-79
2020/12/30 00:56:50;;;;;;;20.95;10.93;;;;;;;11.81;66.79;99414.94;5094527;28;20445;-79
2020/12/30 00:59:17;;;;;;;17.88;9.95;;;;;;;11.38;67.28;99346.13;5094409;28;20081;-79
2020/12/30 01:01:43;;;;;;;19.52;10.45;;;;;;;11.71;67.62;99388.75;5094349;28;20024;-80
2020/12/30 01:04:09;;;;;;;15.90;7.95;;;;;;;12.11;67.06;99442.09;5094399;28;20024;-79
2020/12/30 01:06:34;;;;;;;15.98;8.20;;;;;;;11.96;67.18;99405.13;5094295;28;20044;-79
2020/12/30 01:09:00;;;;;;;18.67;8.52;;;;;;;12.07;67.13;99417.84;5076560;28;20434;-79
2020/12/30 01:11:30;;;;;;;15.18;8.55;;;;;;;12.20;67.19;99425.88;5076502;28;20124;-80
2020/12/30 01:13:56;;;;;;;17.92;7.35;;;;;;;11.24;67.26;99273.00;5094461;28;20020;-80
2020/12/30 01:16:22;;;;;;;16.73;8.10;;;;;;;12.04;67.30;99400.53;5076373;28;20020;-81
2020/12/30 01:18:48;;;;;;;16.35;7.13;;;;;;;11.85;67.76;99368.56;5094343;28;20544;-80
2020/12/30 01:21:14;;;;;;;17.45;9.40;;;;;;;12.20;67.47;99427.72;5094263;28;20031;-79
2020/12/30 01:23:40;;;;;;;21.02;9.35;;;;;;;12.19;67.51;99420.78;5094366;28;20016;-80
2020/12/30 01:26:06;;;;;;;19.58;9.98;;;;;;;12.13;67.78;99427.66;5094160;28;20487;-79
2020/12/30 01:28:31;;;;;;;19.08;10.30;;;;;;;12.01;67.50;99397.44;5094169;28;20099;-78
2020/12/30 01:30:56;;;;;;;17.70;8.95;;;;;;;11.92;67.58;99386.16;5094110;28;20080;-79
2020/12/30 01:33:22;;;;;;;15.65;9.77;;;;;;;11.66;67.21;99336.44;5094011;28;20027;-79
2020/12/30 01:35:47;;;;;;;16.45;9.45;;;;;;;12.19;67.36;99420.78;5094550;28;20026;-79
2020/12/30 01:38:12;;;;;;;21.63;9.25;;;;;;;12.19;67.60;99424.25;5076142;28;20319;-79
2020/12/30 01:40:38;;;;;;;15.88;7.75;;;;;;;12.03;67.30;99393.59;5094148;28;20100;-79
2020/12/30 01:43:03;;;;;;;15.27;8.10;;;;;;;12.01;67.65;99392.13;5094138;28;20020;-79
2020/12/30 01:45:29;;;;;;;13.95;8.50;;;;;;;11.90;67.11;99371.50;5076046;28;20028;-79
2020/12/30 01:47:54;;;;;;;18.00;7.38;;;;;;;11.84;67.66;99369.56;5076442;28;20038;-79
2020/12/30 01:50:19;;;;;;;16.45;7.60;;;;;;;12.02;67.64;99405.19;5097521;28;20058;-78
2020/12/30 01:52:45;;;;;;;17.50;8.27;;;;;;;12.09;67.81;99413.19;5097861;28;20016;-79
2020/12/30 01:55:11;;;;;;;11.90;6.55;;;;;;;11.80;67.27;99355.09;5097706;28;20043;-79
2020/12/30 01:57:37;;;;;;;17.42;7.60;;;;;;;11.59;68.18;99335.56;5097568;28;20454;-79
2020/12/30 02:00:06;;;;;;;16.17;7.53;;;;;;;11.96;67.93;99394.53;5097540;28;20084;-79
2020/12/30 02:02:34;;;;;;;14.18;6.32;;;;;;;11.72;67.56;99350.72;5079388;28;20401;-78
2020/12/30 02:05:00;;;;;;;12.35;6.43;;;;;;;11.98;67.86;99390.69;5079432;28;20050;-80
2020/12/30 02:07:26;;;;;;;11.60;5.72;;;;;;;12.14;68.24;99409.97;5097259;28;20430;-79
2020/12/30 02:09:56;;;;;;;9.73;5.43;;;;;;;12.05;67.99;99399.50;5079430;28;20454;-81
2020/12/30 02:12:21;;;;;;;15.13;5.25;;;;;;;12.14;67.99;99415.25;5097146;28;20107;-81
2020/12/30 02:14:46;;;;;;;14.65;7.03;;;;;;;12.14;68.13;99400.19;5079326;28;20104;-80
2020/12/30 02:17:13;;;;;;;18.45;8.43;;;;;;;11.65;68.19;99328.69;5079162;28;20092;-81
2020/12/30 02:19:39;;;;;;;19.70;10.98;;;;;;;12.12;68.12;99406.69;5097042;28;20024;-80
2020/12/30 02:22:05;;;;;;;22.17;10.27;;;;;;;12.08;68.65;99412.34;5097471;28;20076;-78
2020/12/30 02:24:32;;;;;;;23.50;10.60;;;;;;;12.04;68.62;99405.00;5096949;28;20020;-79
2020/12/30 02:27:00;;;;;;;22.23;9.95;;;;;;;11.99;68.40;99417.97;5096927;28;20433;-79
2020/12/30 02:29:26;;;;;;;20.55;9.45;;;;;;;11.76;68.39;99370.50;5096858;28;20059;-78
2020/12/30 02:31:51;;;;;;;15.23;7.05;;;;;;;12.00;68.41;99403.72;5096860;28;20076;-79
2020/12/30 02:34:17;;;;;;;12.68;7.38;;;;;;;11.97;68.53;99404.94;5096646;28;20124;-78
2020/12/30 02:36:43;;;;;;;15.30;8.70;;;;;;;11.95;68.50;99401.66;5078954;28;20326;-78
2020/12/30 02:39:08;;;;;;;19.30;10.70;;;;;;;11.65;68.52;99347.19;5078871;28;20091;-78
2020/12/30 02:41:34;;;;;;;15.07;9.68;;;;;;;11.69;68.67;99375.72;5096599;28;20053;-79
2020/12/30 02:44:05;;;;;;;18.52;10.00;;;;;;;11.91;68.39;99392.47;5078765;28;20059;-78
2020/12/30 02:46:30;;;;;;;18.92;11.02;;;;;;;11.41;68.83;99301.63;5096592;28;20535;-78
2020/12/30 02:48:56;;;;;;;24.65;11.70;;;;;;;11.92;68.56;99396.75;5078504;28;20111;-78
2020/12/30 02:51:21;;;;;;;25.55;12.27;;;;;;;11.62;68.19;99343.13;5096416;28;20059;-78
2020/12/30 02:53:46;;;;;;;23.05;11.68;;;;;;;11.49;68.70;99324.47;5096502;28;20396;-78
2020/12/30 02:56:13;;;;;;;25.50;11.88;;;;;;;11.89;68.30;99383.06;5096530;28;20020;-78
2020/12/30 02:58:40;;;;;;;22.75;11.90;;;;;;;11.88;68.78;99384.06;5096296;28;20020;-78
2020/12/30 03:01:09;;;;;;;26.77;11.50;;;;;;;11.28;68.40;99290.94;5077256;28;20024;-78
2020/12/30 03:03:35;;;;;;;28.98;12.73;;;;;;;11.69;68.51;99359.84;5096018;28;20027;-78
2020/12/30 03:06:00;;;;;;;26.17;12.52;;;;;;;11.85;68.35;99381.78;5096223;28;20020;-78
2020/12/30 03:08:26;;;;;;;22.05;11.77;;;;;;;11.62;68.79;99350.22;5096076;28;20388;-78
2020/12/30 03:10:51;;;;;;;23.25;10.55;;;;;;;11.61;68.36;99357.34;5096217;28;20400;-79
2020/12/30 03:13:16;;;;;;;20.85;11.45;;;;;;;11.83;68.31;99389.91;5095929;28;20024;-79
2020/12/30 03:15:42;;;;;;;19.45;9.05;;;;;;;11.71;68.83;99370.25;5096124;28;20027;-78
2020/12/30 03:18:07;;;;;;;14.98;8.00;;;;;;;11.78;68.48;99384.38;5096076;28;20343;-78
2020/12/30 03:20:32;;;;;;;17.75;8.27;;;;;;;11.34;68.77;99327.19;5077902;28;20032;-79
2020/12/30 03:22:58;;;;;;;19.08;9.38;;;;;;;11.72;68.74;99379.81;5095993;28;20020;-78
2020/12/30 03:25:23;;;;;;;18.23;10.52;;;;;;;11.71;68.58;99383.47;5095673;28;20337;-78
2020/12/30 03:27:49;;;;;;;16.08;9.73;;;;;;;11.28;68.45;99304.16;5077920;28;20024;-78
2020/12/30 03:30:14;;;;;;;16.90;8.30;;;;;;;10.93;69.03;99245.03;5095441;28;20016;-78
2020/12/30 03:32:39;;;;;;;19.92;8.45;;;;;;;11.30;68.74;99323.28;5095833;28;20020;-77
2020/12/30 03:35:05;;;;;;;15.90;7.78;;;;;;;11.65;68.75;99371.81;5095603;28;20060;-78
2020/12/30 03:37:30;;;;;;;19.80;7.85;;;;;;;11.43;68.61;99336.63;5095539;28;20484;-78
2020/12/30 03:39:56;;;;;;;17.25;9.50;;;;;;;11.28;69.05;99308.63;5095590;28;20020;-78
2020/12/30 03:42:21;;;;;;;25.50;10.15;;;;;;;11.55;68.49;99357.28;5077608;28;20016;-77
2020/12/30 03:44:46;;;;;;;22.05;9.90;;;;;;;11.63;68.98;99373.84;5095584;28;20024;-77
2020/12/30 03:47:12;;;;;;;16.85;8.13;;;;;;;11.60;69.07;99378.69;5095357;28;20028;-78
2020/12/30 03:49:37;;;;;;;20.45;10.55;;;;;;;11.59;69.28;99371.75;5095348;28;20030;-78
2020/12/30 03:52:02;;;;;;;20.40;10.13;;;;;;;11.39;68.64;99339.84;5095472;28;20024;-77
2020/12/30 03:54:29;;;;;;;17.45;8.38;;;;;;;11.44;68.70;99342.72;5095226;28;20019;-78
2020/12/30 03:56:54;;;;;;;19.50;8.93;;;;;;;11.44;69.07;99348.03;5095366;28;20016;-78
2020/12/30 03:59:20;;;;;;;20.08;8.80;;;;;;;11.16;68.63;99296.91;5095130;28;20021;-78
2020/12/30 04:01:45;;;;;;;20.83;10.90;;;;;;;11.09;69.27;99292.34;5077190;28;20334;-77
2020/12/30 04:04:12;;;;;;;26.00;16.63;;;;;;;11.09;68.69;99286.25;5095203;28;20028;-78
2020/12/30 04:06:38;;;;;;;25.48;15.52;;;;;;;11.28;69.50;99308.63;5076936;28;20350;-78
2020/12/30 04:09:03;;;;;;;20.48;11.68;;;;;;;11.07;68.83;99269.75;5095134;28;20107;-78
2020/12/30 04:11:29;;;;;;;19.63;12.52;;;;;;;11.51;68.98;99340.16;5076664;28;20031;-78
2020/12/30 04:13:54;;;;;;;26.38;13.73;;;;;;;11.54;69.16;99332.66;5095008;28;20069;-78
2020/12/30 04:16:21;;;;;;;25.20;13.98;;;;;;;11.34;68.75;99308.69;5094910;28;20016;-78
2020/12/30 04:18:47;;;;;;;25.48;13.15;;;;;;;11.64;69.38;99337.63;5094959;28;20074;-78
2020/12/30 04:21:25;;;;;;;23.20;14.15;;;;;;;11.29;68.87;99282.00;5094930;28;20330;-77
2020/12/30 04:23:54;;;;;;;18.33;11.18;;;;;;;11.71;69.02;99343.78;5077087;28;20102;-77
2020/12/30 04:26:21;;;;;;;19.42;9.30;;;;;;;11.34;68.87;99274.31;5076804;28;20020;-79
2020/12/30 04:28:48;;;;;;;19.90;9.95;;;;;;;11.79;68.80;99351.63;5094897;28;20020;-78
2020/12/30 04:31:16;;;;;;;22.85;10.40;;;;;;;11.83;68.21;99344.13;5094639;28;20040;-78
2020/12/30 04:33:41;;;;;;;20.52;8.63;;;;;;;11.58;69.25;99309.31;5076745;28;20023;-77
2020/12/30 04:36:07;;;;;;;18.45;7.43;;;;;;;11.86;68.60;99346.41;5094642;28;20016;-79
2020/12/30 04:38:35;;;;;;;11.82;6.13;;;;;;;11.71;68.20;99323.47;5094485;28;20020;-77
2020/12/30 04:41:03;;;;;;;14.88;6.57;;;;;;;11.61;68.24;99311.56;5094721;28;20031;-78
2020/12/30 04:43:30;;;;;;;9.38;4.68;;;;;;;11.70;68.75;99319.19;5076617;28;20021;-77
2020/12/30 04:45:58;;;;;;;12.00;4.25;;;;;;;11.68;68.09;99307.16;5094549;28;20031;-77
2020/12/30 04:48:26;;;;;;;11.57;4.70;;;;;;;11.96;68.27;99347.72;5094483;28;20023;-78
2020/12/30 04:50:54;;;;;;;9.77;4.53;;;;;;;11.90;68.41;99343.22;5076516;28;20479;-77
2020/12/30 04:53:21;;;;;;;9.35;3.75;;;;;;;11.95;68.99;99354.03;5094498;28;20031;-77
2020/12/30 04:55:48;;;;;;;10.35;4.57;;;;;;;11.40;68.59;99260.34;5094522;28;20058;-77
2020/12/30 04:58:15;;;;;;;11.40;5.22;;;;;;;11.36;68.09;99261.72;5094465;28;20097;-77
2020/12/30 05:00:42;;;;;;;14.18;5.75;;;;;;;11.74;68.37;99322.25;5094429;28;20062;-77
2020/12/30 05:03:10;;;;;;;14.43;7.05;;;;;;;11.94;68.67;99357.69;5076634;28;20423;-77
2020/12/30 05:05:39;;;;;;;12.52;6.55;;;;;;;11.85;68.63;99353.50;5094153;28;20024;-76
2020/12/30 05:08:10;;;;;;;16.23;6.57;;;;;;;11.66;68.59;99325.03;5076484;28;20461;-78
2020/12/30 05:10:46;;;;;;;13.75;6.82;;;;;;;11.91;68.44;99368.66;5094275;28;20099;-78
2020/12/30 05:13:12;;;;;;;18.23;7.03;;;;;;;11.98;68.48;99363.41;5076538;28;20027;-76
2020/12/30 05:15:37;;;;;;;12.23;6.53;;;;;;;11.86;68.37;99347.22;5094288;28;20021;-77
2020/12/30 05:18:05;;;;;;;14.95;7.82;;;;;;;12.08;67.84;99372.66;5094181;28;20032;-76
2020/12/30 05:20:37;;;;;;;12.05;7.20;;;;;;;11.67;68.02;99326.69;5094286;28;20330;-78
2020/12/30 05:23:09;;;;;;;14.95;6.95;;;;;;;11.46;67.91;99287.84;5095128;28;20490;-78
2020/12/30 05:25:38;;;;;;;;;;;;;;;11.89;68.77;99373.31;5098732;28;20020;-78
2020/12/30 05:28:14;;;;;;;15.60;8.20;;;;;;;11.94;68.06;99378.03;5080234;28;20314;-78
2020/12/30 05:30:41;;;;;;;21.10;9.68;;;;;;;11.66;68.46;99323.22;5079730;28;20395;-78
2020/12/30 05:33:07;;;;;;;20.48;10.43;;;;;;;11.54;68.60;99315.97;5098032;28;20051;-77
2020/12/30 05:35:33;;;;;;;20.50;10.95;;;;;;;11.83;68.59;99352.06;5098100;28;20399;-77
2020/12/30 05:37:59;;;;;;;21.98;10.38;;;;;;;11.50;68.37;99307.59;5097975;28;20026;-77
2020/12/30 05:40:29;;;;;;;23.38;10.38;;;;;;;11.26;68.38;99265.72;5097937;28;20024;-78
2020/12/30 05:43:09;;;;;;;22.58;11.68;;;;;;;11.90;68.71;99374.97;5097823;28;20026;-77
2020/12/30 05:45:43;;;;;;;22.65;11.82;;;;;;;11.42;68.39;99305.09;5097568;28;20028;-77
2020/12/30 05:48:12;;;;;;;30.80;19.15;;;;;;;11.68;68.76;99360.03;5097916;28;20047;-77
2020/12/30 05:50:52;;;;;;;38.03;20.85;;;;;;;11.80;69.21;99387.66;5079662;28;20027;-77
2020/12/30 05:53:19;;;;;;;42.13;22.38;;;;;;;11.81;68.68;99396.41;5097644;28;20031;-78
2020/12/30 05:55:48;;;;;;;116.72;43.22;;;;;;;11.81;69.36;99399.88;5079602;28;20415;-77
2020/12/30 05:58:15;;;;;;;102.63;41.75;;;;;;;11.07;68.97;99285.59;5079564;28;20036;-77
2020/12/30 06:00:41;;;;;;;92.38;40.70;;;;;;;11.15;68.63;99293.44;5097262;28;20033;-76
2020/12/30 06:03:07;;;;;;;76.20;32.45;;;;;;;11.37;68.64;99318.06;5097493;28;20016;-77
2020/12/30 06:05:33;;;;;;;59.88;30.20;;;;;;;11.07;69.14;99285.59;5097100;28;20101;-76
2020/12/30 06:07:58;;;;;;;73.43;37.85;;;;;;;11.67;68.96;99374.28;5097277;28;20020;-77
2020/12/30 06:10:27;;;;;;;70.65;34.55;;;;;;;11.70;69.45;99387.94;5097000;28;20048;-76
2020/12/30 06:13:02;;;;;;;57.72;29.02;;;;;;;11.61;69.02;99378.50;5097066;28;20036;-77
2020/12/30 06:15:32;;;;;;;44.65;21.25;;;;;;;11.52;69.25;99370.88;5079006;28;20028;-76
2020/12/30 06:18:00;;;;;;;47.92;28.08;;;;;;;11.56;69.42;99383.53;5097126;28;20085;-77
2020/12/30 06:20:31;;;;;;;49.22;25.88;;;;;;;11.66;69.73;99393.78;5096871;28;20054;-76
2020/12/30 06:23:01;;;;;;;46.50;26.10;;;;;;;11.20;69.05;99330.69;5079148;28;20086;-77
2020/12/30 06:25:27;;;;;;;34.90;22.65;;;;;;;11.66;69.46;99401.72;5078810;28;20324;-77
2020/12/30 06:27:53;;;;;;;43.25;25.80;;;;;;;11.56;69.31;99395.94;5097148;28;20040;-77
2020/12/30 06:30:19;;;;;;;42.67;23.40;;;;;;;11.41;69.64;99385.41;5096690;28;20030;-76
2020/12/30 06:32:45;;;;;;;35.08;19.65;;;;;;;11.20;69.10;99346.56;5096977;28;20032;-79
2020/12/30 06:35:11;;;;;;;35.33;20.35;;;;;;;11.52;69.47;99397.31;5078699;28;20427;-81
2020/12/30 06:37:37;;;;;;;45.85;22.77;;;;;;;11.60;69.74;99405.94;5096762;28;20032;-81
2020/12/30 06:40:22;;;;;;;37.17;21.08;;;;;;;10.95;69.19;99303.78;5096919;28;20071;-79
2020/12/30 06:42:55;;;;;;;34.65;21.08;;;;;;;11.12;69.73;99326.31;5078662;28;20028;-79
2020/12/30 06:45:52;;;;;;;40.03;20.48;;;;;;;11.42;69.86;99374.66;5096537;28;20036;-80
2020/12/30 06:48:19;;;;;;;34.70;20.30;;;;;;;11.46;69.49;99370.63;5052072;28;20036;-80
2020/12/30 06:50:45;;;;;;;34.78;19.13;;;;;;;11.62;69.45;99408.41;5078555;28;20385;-79
2020/12/30 06:53:31;;;;;;;30.67;19.70;;;;;;;11.21;69.95;99328.88;5096375;28;20035;-81
2020/12/30 06:55:58;;;;;;;31.40;20.08;;;;;;;11.65;69.84;99402.75;5096449;28;20034;-80
2020/12/30 06:58:51;;;;;;;31.50;18.85;;;;;;;11.67;69.63;99393.59;5096160;28;20054;-81
2020/12/30 07:01:19;;;;;;;29.77;17.17;;;;;;;11.74;69.59;99391.84;5096337;28;20358;-79
2020/12/30 07:03:45;;;;;;;31.63;17.13;;;;;;;11.51;69.34;99348.91;5096286;28;20055;-80
2020/12/30 07:06:27;;;;;;;25.13;14.40;;;;;;;11.87;69.87;99400.94;5096238;28;20050;-80
2020/12/30 07:08:54;;;;;;;23.27;13.07;;;;;;;11.87;69.54;99377.13;5096092;28;20031;-78
2020/12/30 07:11:51;;;;;;;18.17;10.10;;;;;;;12.02;69.60;99386.66;5096166;28;20089;-81
2020/12/30 07:14:19;;;;;;;17.38;9.73;;;;;;;12.14;69.22;99392.25;5096116;28;20400;-80
2020/12/30 07:16:49;;;;;;;15.57;7.78;;;;;;;12.04;69.31;99358.19;5078140;28;20024;-82
2020/12/30 07:19:23;;;;;;;13.70;6.43;;;;;;;12.36;69.62;99401.78;5077989;28;20038;-79
2020/12/30 07:21:54;;;;;;;12.68;5.60;;;;;;;12.49;69.34;99390.47;5077874;28;20385;-78
2020/12/30 07:24:23;;;;;;;10.60;5.00;;;;;;;12.45;69.45;99378.63;5095730;28;20350;-81
2020/12/30 07:26:52;;;;;;;13.38;5.82;;;;;;;12.07;69.14;99299.56;5095784;28;20024;-80
2020/12/30 07:29:18;;;;;;;15.07;6.60;;;;;;;12.62;69.26;99382.59;5077702;28;20046;-79
2020/12/30 07:31:49;;;;;;;19.05;5.90;;;;;;;12.58;69.12;99378.69;5095411;28;20056;-80
2020/12/30 07:34:23;;;;;;;15.52;7.47;;;;;;;12.70;69.06;99386.94;5077493;28;20111;-79
2020/12/30 07:36:49;;;;;;;12.52;6.38;;;;;;;12.89;69.07;99418.03;5095358;28;20028;-79
2020/12/30 07:39:16;;;;;;;11.77;6.15;;;;;;;12.64;69.45;99369.19;5095535;28;20048;-78
2020/12/30 07:41:45;;;;;;;13.65;6.57;;;;;;;12.89;69.20;99390.72;5095305;28;20028;-79
2020/12/30 07:44:11;;;;;;;16.10;7.13;;;;;;;12.51;68.90;99330.19;5095520;28;20389;-77
2020/12/30 07:46:37;;;;;;;14.10;6.78;;;;;;;12.68;68.60;99349.25;5076796;28;20039;-78
2020/12/30 07:49:14;;;;;;;16.08;8.50;;;;;;;13.11;68.38;99409.97;5077363;28;20043;-77
2020/12/30 07:51:52;;;;;;;11.50;6.05;;;;;;;12.84;68.37;99367.47;5095229;28;20785;-79
2020/12/30 07:54:19;;;;;;;13.38;6.13;;;;;;;13.16;68.42;99426.91;5077312;28;20042;-78
2020/12/30 07:56:45;;;;;;;12.02;6.75;;;;;;;12.60;68.40;99318.41;5077058;28;20110;-80
2020/12/30 07:59:19;;;;;;;10.27;5.60;;;;;;;12.87;67.85;99351.16;5095102;28;20032;-79
2020/12/30 08:01:55;;;;;;;13.55;5.40;;;;;;;13.23;67.69;99387.22;5077074;28;20089;-79
2020/12/30 08:04:21;;;;;;;10.40;5.35;;;;;;;13.26;67.87;99377.03;5077206;28;20066;-80
2020/12/30 08:06:47;;;;;;;14.20;6.45;;;;;;;13.43;67.64;99411.97;5094961;28;20447;-79
2020/12/30 08:09:13;;;;;;;11.02;5.57;;;;;;;13.49;67.32;99405.88;5094932;28;20032;-79
2020/12/30 08:11:51;;;;;;;13.02;5.80;;;;;;;13.55;66.93;99412.22;5094812;28;20016;-80
2020/12/30 08:14:18;;;;;;;11.88;5.40;;;;;;;13.48;66.52;99395.47;5077045;28;20028;-81
2020/12/30 08:16:51;;;;;;;10.23;5.03;;;;;;;13.49;66.17;99400.56;5094542;28;20350;-78
2020/12/30 08:19:40;;;;;;;12.15;4.97;;;;;;;13.64;65.94;99433.06;5095071;28;20023;-80
2020/12/30 08:22:07;;;;;;;14.70;6.00;;;;;;;13.76;65.86;99411.25;5095205;28;20038;-79
2020/12/30 08:24:34;;;;;;;11.45;6.53;;;;;;;13.78;65.57;99410.03;5076769;28;20039;-79
2020/12/30 08:27:00;;;;;;;11.32;5.88;;;;;;;13.55;65.56;99364.47;5076715;28;20031;-77
2020/12/30 08:29:30;;;;;;;12.45;4.40;;;;;;;13.81;65.69;99422.06;5094461;28;20450;-79
2020/12/30 08:31:58;;;;;;;8.20;4.25;;;;;;;13.72;65.27;99372.88;5076579;28;20127;-79
2020/12/30 08:34:28;;;;;;;9.50;3.85;;;;;;;13.74;65.28;99382.25;5094590;28;20028;-80
2020/12/30 08:37:09;;;;;;;9.57;4.03;;;;;;;13.60;65.01;99352.25;5094714;28;20024;-79
2020/12/30 08:39:40;;;;;;;8.93;4.07;;;;;;;14.00;64.55;99405.34;5076502;28;20416;-79
2020/12/30 08:42:13;;;;;;;9.43;3.22;;;;;;;14.03;64.68;99404.13;5094493;28;20028;-79
2020/12/30 08:44:44;;;;;;;11.23;2.85;;;;;;;13.99;64.39;99393.09;5094472;28;20052;-78
2020/12/30 08:47:13;;;;;;;8.93;3.38;;;;;;;14.14;64.19;99406.19;5094457;28;20028;-79
2020/12/30 08:49:42;;;;;;;11.07;3.63;;;;;;;14.11;63.82;99388.00;5094365;28;20024;-79
2020/12/30 08:52:20;;;;;;;10.73;3.60;;;;;;;14.21;63.89;99391.09;5094468;28;20035;-78
2020/12/30 08:54:46;;;;;;;11.45;3.97;;;;;;;14.26;63.77;99394.75;5094233;28;20031;-78
2020/12/30 08:57:18;;;;;;;12.45;5.07;;;;;;;14.19;63.41;99367.38;5095443;28;20024;-78
2020/12/30 08:59:44;;;;;;;8.25;4.22;;;;;;;14.10;63.53;99330.59;5098402;28;20085;-77
2020/12/30 09:02:13;;;;;;;11.18;4.60;;;;;;;14.37;63.17;99365.94;5080590;28;20377;-77
2020/12/30 09:04:52;;;;;;;6.97;3.45;;;;;;;14.06;63.06;99298.34;5080223;28;20059;-78
2020/12/30 09:07:25;;;;;;;8.88;3.58;;;;;;;14.64;62.89;99367.53;5098094;28;20035;-78
2020/12/30 09:10:01;;;;;;;10.23;4.00;;;;;;;14.28;63.77;99302.41;5080265;28;20341;-80
2020/12/30 09:12:26;;;;;;;8.00;3.35;;;;;;;14.42;63.10;99287.28;5098209;28;20032;-79
2020/12/30 09:14:51;;;;;;;11.55;4.63;;;;;;;14.93;62.88;99352.97;5080452;28;20028;-79
2020/12/30 09:17:17;;;;;;;7.80;4.70;;;;;;;14.47;62.32;99257.44;5098012;28;20028;-78
2020/12/30 09:19:42;;;;;;;11.68;4.85;;;;;;;15.15;62.58;99362.28;5080105;28;20403;-79
2020/12/30 09:22:09;;;;;;;11.57;4.68;;;;;;;15.10;62.13;99348.78;5080028;28;20028;-79
2020/12/30 09:24:39;;;;;;;10.32;4.05;;;;;;;15.18;61.64;99345.88;5098006;28;20333;-79
2020/12/30 09:27:19;;;;;;;11.77;4.97;;;;;;;15.43;60.42;99364.56;5097959;28;20121;-80
2020/12/30 09:29:44;;;;;;;8.15;2.78;;;;;;;15.13;60.01;99311.13;5097918;28;20426;-79
2020/12/30 09:32:10;;;;;;;10.02;3.72;;;;;;;15.56;59.91;99363.69;5097870;28;20055;-80
2020/12/30 09:34:35;;;;;;;11.68;3.65;;;;;;;15.61;59.95;99358.59;5097686;28;20043;-79
2020/12/30 09:37:01;;;;;;;11.60;3.00;;;;;;;15.69;59.68;99360.19;5079962;28;20043;-79
2020/12/30 09:39:29;;;;;;;8.38;3.65;;;;;;;15.60;59.37;99343.63;5097678;28;20024;-81
2020/12/30 09:42:04;;;;;;;7.80;3.60;;;;;;;15.47;59.57;99315.22;5079786;28;20174;-78
2020/12/30 09:44:30;;;;;;;7.38;3.65;;;;;;;15.74;59.30;99357.69;5079709;28;20085;-79
2020/12/30 09:46:56;;;;;;;9.90;3.53;;;;;;;14.11;58.99;99091.47;5097610;28;20036;-79
2020/12/30 09:49:22;;;;;;;11.80;4.38;;;;;;;15.78;58.82;99337.59;5079667;28;20035;-79
2020/12/30 09:51:57;;;;;;;11.30;3.35;;;;;;;15.69;58.45;99338.88;5079543;28;20473;-79
2020/12/30 09:54:22;;;;;;;12.57;3.80;;;;;;;15.42;58.86;99277.81;5097586;28;20058;-79
2020/12/30 09:56:49;;;;;;;10.07;3.92;;;;;;;15.25;58.90;99242.94;5097553;28;20404;-79
2020/12/30 09:59:20;;;;;;;12.57;4.63;;;;;;;15.79;58.53;99302.75;5097528;28;20063;-79
2020/12/30 10:01:47;;;;;;;7.38;2.88;;;;;;;15.91;58.07;99334.81;5079145;28;20338;-79
2020/12/30 10:04:12;;;;;;;10.80;2.83;;;;;;;15.95;58.21;99311.22;5097381;28;20433;-79
2020/12/30 10:06:37;;;;;;;6.90;2.70;;;;;;;15.95;58.05;99311.22;5097092;28;20024;-79
2020/12/30 10:09:03;;;;;;;8.75;2.50;;;;;;;15.98;57.71;99298.28;5096663;28;20050;-79
2020/12/30 10:11:28;;;;;;;9.55;2.80;;;;;;;15.55;57.34;99226.34;5096900;28;20145;-78
2020/12/30 10:13:53;;;;;;;7.28;2.85;;;;;;;15.87;56.94;99277.72;5079173;28;20342;-79
2020/12/30 10:16:20;;;;;;;8.82;3.03;;;;;;;16.10;56.22;99317.03;5079123;28;20060;-79
2020/12/30 10:18:45;;;;;;;7.22;2.20;;;;;;;16.00;56.07;99300.75;5096875;28;20028;-78
2020/12/30 10:21:10;;;;;;;8.90;2.95;;;;;;;16.05;56.01;99292.91;5096972;28;20437;-78
2020/12/30 10:23:36;;;;;;;8.13;3.28;;;;;;;15.75;56.19;99245.66;5096967;28;20060;-79
2020/12/30 10:26:01;;;;;;;8.05;3.45;;;;;;;16.08;56.46;99295.13;5096687;28;20039;-78
2020/12/30 10:28:26;;;;;;;10.48;3.45;;;;;;;16.04;56.22;99262.78;5096771;28;20032;-78
2020/12/30 10:30:52;;;;;;;8.52;2.80;;;;;;;16.17;55.89;99281.31;5096616;28;20040;-79
2020/12/30 10:33:17;;;;;;;10.63;4.20;;;;;;;15.79;56.13;99228.22;5096679;28;20032;-79
2020/12/30 10:35:42;;;;;;;12.57;4.25;;;;;;;16.27;55.66;99267.47;5078412;28;20047;-79
2020/12/30 10:38:08;;;;;;;7.72;3.85;;;;;;;16.28;55.67;99257.63;5078557;28;20026;-79
2020/12/30 10:40:33;;;;;;;11.68;4.65;;;;;;;16.19;55.64;99219.81;5096351;28;20035;-79
2020/12/30 10:42:59;;;;;;;8.80;3.40;;;;;;;16.19;55.81;99212.66;5096405;28;20028;-78
2020/12/30 10:45:24;;;;;;;13.23;4.20;;;;;;;16.41;55.57;99244.19;5078299;28;20426;-79
2020/12/30 10:47:49;;;;;;;8.40;3.30;;;;;;;16.10;55.75;99178.53;5096232;28;20371;-78
2020/12/30 10:50:15;;;;;;;12.65;6.18;;;;;;;16.27;55.79;99205.38;5096420;28;20030;-80
2020/12/30 10:52:40;;;;;;;12.18;3.50;;;;;;;16.61;55.99;99251.94;5096139;28;20032;-80
2020/12/30 10:55:05;;;;;;;8.80;3.33;;;;;;;16.27;55.44;99179.56;5078265;28;20114;-80
2020/12/30 10:57:31;;;;;;;7.70;2.85;;;;;;;16.48;55.73;99210.28;5096082;28;20031;-79
2020/12/30 10:59:56;;;;;;;8.02;2.60;;;;;;;16.68;55.41;99242.84;5096008;28;20032;-80
2020/12/30 11:02:21;;;;;;;7.25;2.58;;;;;;;16.77;55.12;99238.03;5096212;28;20024;-79
2020/12/30 11:04:47;;;;;;;8.05;3.53;;;;;;;16.72;55.05;99235.22;5096025;28;20153;-79
2020/12/30 11:07:12;;;;;;;14.73;5.53;;;;;;;16.13;54.85;99146.13;5078008;28;20047;-79
2020/12/30 11:09:38;;;;;;;13.38;4.35;;;;;;;16.67;54.60;99205.75;5095949;28;20020;-79
2020/12/30 11:12:03;;;;;;;8.93;5.20;;;;;;;16.70;54.89;99200.78;5096275;28;20422;-79
2020/12/30 11:14:28;;;;;;;13.48;4.75;;;;;;;16.42;55.02;99155.22;5095816;28;20024;-79
2020/12/30 11:16:54;;;;;;;11.38;5.65;;;;;;;16.67;55.09;99192.44;5095885;28;20024;-79
2020/12/30 11:19:19;;;;;;;15.18;7.57;;;;;;;16.79;55.32;99212.78;5095643;28;20024;-78
2020/12/30 11:21:54;;;;;;;8.50;3.90;;;;;;;16.88;54.70;99229.25;5094510;28;20426;-78
2020/12/30 11:24:20;;;;;;;11.95;5.80;;;;;;;16.72;55.20;99208.56;5095758;28;20024;-80
2020/12/30 11:26:46;;;;;;;14.95;8.93;;;;;;;16.88;55.03;99217.78;5095561;28;20080;-79